Time;durP1;ratioP1;P1;durP2;ratioP2;P2;SDS_P1;SDS_P2;PMS_P1;PMS_P2;Temp;Humidity;BMP_temperature;BMP_pressure;BME280_temperature;BME280_humidity;BME280_pressure;Samples;Min_cycle;Max_cycle;Signal;HPM_P1;HPM_P2
2021/11/13 00:00:46;;;;;;;24.33;19.42;;;;;;;5.15;63.39;100178.38;5054929;28;20021;-74
2021/11/13 00:03:13;;;;;;;26.50;19.73;;;;;;;5.07;63.41;100152.84;5054793;28;20024;-74
2021/11/13 00:05:39;;;;;;;27.13;19.73;;;;;;;5.35;63.52;100201.97;5054761;28;20052;-74
2021/11/13 00:08:05;;;;;;;27.88;19.20;;;;;;;5.46;63.20;100223.78;5054706;28;20031;-74
2021/11/13 00:10:31;;;;;;;22.03;17.93;;;;;;;5.47;63.26;100220.22;5036565;28;20017;-74
2021/11/13 00:13:00;;;;;;;23.70;18.63;;;;;;;5.46;63.54;100229.03;5054691;28;20483;-74
2021/11/13 00:15:26;;;;;;;28.83;20.47;;;;;;;5.42;63.21;100220.59;5054622;28;20108;-74
2021/11/13 00:17:52;;;;;;;29.47;20.07;;;;;;;5.33;63.25;100210.91;5054360;28;20021;-74
2021/11/13 00:20:19;;;;;;;20.92;17.98;;;;;;;5.30;63.22;100198.06;5054268;28;20021;-74
2021/11/13 00:22:46;;;;;;;21.80;16.93;;;;;;;5.07;63.22;100165.91;5036338;28;20017;-74
2021/11/13 00:25:12;;;;;;;21.93;17.77;;;;;;;5.33;63.32;100218.75;5054635;28;20105;-74
2021/11/13 00:27:38;;;;;;;23.97;17.67;;;;;;;5.29;63.80;100215.56;5054294;28;20035;-74
2021/11/13 00:30:05;;;;;;;20.93;16.50;;;;;;;5.26;63.48;100217.59;5054273;28;20510;-74
2021/11/13 00:32:30;;;;;;;21.70;17.27;;;;;;;4.79;63.37;100147.28;5054146;28;20062;-74
2021/11/13 00:34:56;;;;;;;21.77;17.60;;;;;;;5.13;63.81;100201.22;5053811;28;20064;-74
2021/11/13 00:37:21;;;;;;;19.17;16.17;;;;;;;5.09;63.49;100187.56;5036209;28;20013;-74
2021/11/13 00:39:46;;;;;;;22.10;17.37;;;;;;;5.30;63.32;100219.00;5054278;28;20032;-74
2021/11/13 00:42:12;;;;;;;20.33;18.13;;;;;;;5.14;63.43;100195.03;5054208;28;20064;-74
2021/11/13 00:44:37;;;;;;;21.87;17.60;;;;;;;5.34;63.27;100225.66;5053891;28;20032;-74
2021/11/13 00:47:04;;;;;;;19.57;15.90;;;;;;;5.35;63.39;100222.06;5054006;28;20092;-74
2021/11/13 00:49:29;;;;;;;18.47;16.13;;;;;;;5.31;63.21;100215.44;5054050;28;20024;-74
2021/11/13 00:51:55;;;;;;;19.23;16.37;;;;;;;5.17;63.28;100194.78;5053889;28;20033;-74
2021/11/13 00:54:21;;;;;;;17.87;15.67;;;;;;;5.30;63.29;100209.38;5053970;28;20021;-74
2021/11/13 00:56:47;;;;;;;18.93;15.73;;;;;;;5.10;62.75;100182.19;5053711;28;20027;-74
2021/11/13 00:59:14;;;;;;;18.03;15.20;;;;;;;5.23;63.24;100213.47;5053108;28;20025;-74
2021/11/13 01:01:39;;;;;;;20.87;15.57;;;;;;;5.18;63.43;100202.50;5053501;28;20029;-74
2021/11/13 01:04:05;;;;;;;22.67;16.50;;;;;;;5.22;63.22;100208.34;5053376;28;20032;-74
2021/11/13 01:06:31;;;;;;;19.52;16.13;;;;;;;4.91;63.07;100152.44;5035702;28;20071;-74
2021/11/13 01:08:56;;;;;;;22.50;17.50;;;;;;;5.23;63.30;100210.84;5053571;28;20494;-74
2021/11/13 01:11:21;;;;;;;21.23;16.47;;;;;;;5.16;63.08;100211.44;5053811;28;20035;-74
2021/11/13 01:13:49;;;;;;;24.73;19.23;;;;;;;5.22;63.13;100216.19;5053379;28;20036;-74
2021/11/13 01:16:15;;;;;;;28.33;18.90;;;;;;;5.15;63.14;100202.75;5053201;28;20028;-74
2021/11/13 01:18:42;;;;;;;23.80;18.37;;;;;;;4.98;63.00;100188.44;5053762;28;20490;-74
2021/11/13 01:21:07;;;;;;;24.13;18.07;;;;;;;5.13;63.38;100214.31;5053794;28;20489;-74
2021/11/13 01:23:33;;;;;;;23.40;18.07;;;;;;;5.10;63.27;100218.00;5053288;28;20036;-74
2021/11/13 01:25:59;;;;;;;24.40;18.17;;;;;;;5.07;63.09;100224.34;5053338;28;20021;-74
2021/11/13 01:28:25;;;;;;;23.30;17.60;;;;;;;5.06;63.21;100220.06;5035123;28;20060;-74
2021/11/13 01:30:50;;;;;;;20.37;16.77;;;;;;;4.83;63.52;100187.09;5053067;28;20118;-74
2021/11/13 01:33:16;;;;;;;21.33;17.77;;;;;;;4.65;63.38;100162.44;5052956;28;20155;-74
2021/11/13 01:35:41;;;;;;;23.33;19.63;;;;;;;4.98;63.23;100212.00;5052811;28;20049;-74
2021/11/13 01:38:07;;;;;;;21.53;17.47;;;;;;;4.81;63.30;100183.78;5052964;28;20104;-74
2021/11/13 01:40:34;;;;;;;20.20;17.10;;;;;;;4.67;63.45;100153.50;5052919;28;20036;-74
2021/11/13 01:43:00;;;;;;;21.80;16.97;;;;;;;5.00;63.21;100212.72;5034993;28;20111;-74
2021/11/13 01:45:26;;;;;;;20.13;16.43;;;;;;;4.53;63.32;100134.69;5052887;28;20155;-74
2021/11/13 01:47:53;;;;;;;22.37;17.40;;;;;;;5.01;63.32;100213.53;5052790;28;20048;-74
2021/11/13 01:50:22;;;;;;;21.27;16.10;;;;;;;4.97;63.23;100202.50;5052663;28;20017;-74
2021/11/13 01:52:48;;;;;;;20.90;16.30;;;;;;;5.01;63.27;100203.06;5052448;28;20029;-74
2021/11/13 01:55:16;;;;;;;22.33;16.80;;;;;;;4.91;63.40;100200.38;5052566;28;20402;-74
2021/11/13 01:57:48;;;;;;;19.10;15.60;;;;;;;4.81;63.43;100178.53;5052584;28;20104;-74
2021/11/13 02:00:25;;;;;;;19.53;16.07;;;;;;;4.90;63.45;100195.28;5052529;28;20417;-74
2021/11/13 02:02:51;;;;;;;19.90;16.30;;;;;;;4.72;63.54;100192.38;5052562;28;20044;-74
2021/11/13 02:05:16;;;;;;;19.07;17.00;;;;;;;4.44;63.49;100134.44;5052359;28;20494;-74
2021/11/13 02:07:42;;;;;;;23.13;15.50;;;;;;;4.85;63.30;100208.72;5052331;28;20024;-74
2021/11/13 02:10:09;;;;;;;20.57;15.50;;;;;;;4.32;63.57;100122.34;5051298;28;20027;-74
2021/11/13 02:12:35;;;;;;;20.60;16.17;;;;;;;4.50;63.23;100154.06;5034326;28;20070;-74
2021/11/13 02:15:02;;;;;;;20.17;16.10;;;;;;;4.49;63.55;100141.13;5052336;28;20024;-74
2021/11/13 02:17:28;;;;;;;18.20;15.73;;;;;;;4.67;63.64;100178.84;5052206;28;20032;-74
2021/11/13 02:19:53;;;;;;;17.90;15.47;;;;;;;4.49;63.53;100148.94;5052283;28;20024;-74
2021/11/13 02:22:18;;;;;;;17.50;13.50;;;;;;;4.82;63.38;100203.75;5052339;28;20099;-74
2021/11/13 02:24:45;;;;;;;16.40;13.53;;;;;;;4.62;63.44;100187.06;5034292;28;20600;-74
2021/11/13 02:27:11;;;;;;;19.20;15.07;;;;;;;4.79;63.34;100210.06;5052354;28;20029;-74
2021/11/13 02:29:37;;;;;;;19.90;14.90;;;;;;;4.35;63.14;100143.03;5052061;28;20452;-74
2021/11/13 02:32:03;;;;;;;18.70;15.10;;;;;;;4.75;63.26;100213.88;5051824;28;20029;-74
2021/11/13 02:34:28;;;;;;;20.97;16.03;;;;;;;4.75;63.36;100223.50;5051805;28;20037;-74
2021/11/13 02:36:54;;;;;;;18.00;15.40;;;;;;;4.76;63.35;100217.31;5051895;28;20163;-74
2021/11/13 02:39:19;;;;;;;19.93;15.87;;;;;;;4.60;63.08;100198.59;5051627;28;20513;-74
2021/11/13 02:41:47;;;;;;;20.83;14.80;;;;;;;4.75;63.09;100213.88;5051683;28;20106;-74
2021/11/13 02:44:15;;;;;;;19.23;16.00;;;;;;;4.75;63.19;100207.81;5051673;28;20024;-74
2021/11/13 02:46:41;;;;;;;20.17;15.43;;;;;;;4.75;63.19;100213.06;5033787;28;20024;-74
2021/11/13 02:49:07;;;;;;;20.87;14.33;;;;;;;4.75;63.23;100213.06;5051865;28;20382;-74
2021/11/13 02:51:33;;;;;;;19.40;15.40;;;;;;;4.76;63.24;100214.72;5051631;28;20099;-74
2021/11/13 02:53:58;;;;;;;21.20;15.47;;;;;;;4.78;63.02;100212.81;5033831;28;20155;-74
2021/11/13 02:56:24;;;;;;;27.23;17.17;;;;;;;4.39;63.38;100161.91;5051573;28;20028;-74
2021/11/13 02:58:49;;;;;;;19.60;14.57;;;;;;;4.63;63.31;100193.13;5051563;28;20485;-74
2021/11/13 03:01:18;;;;;;;20.10;16.17;;;;;;;4.80;63.16;100216.13;5051278;28;20100;-74
2021/11/13 03:03:48;;;;;;;17.80;14.87;;;;;;;4.62;63.33;100184.44;5051068;28;20023;-74
2021/11/13 03:06:14;;;;;;;21.37;16.63;;;;;;;4.87;63.09;100217.28;5033573;28;20021;-74
2021/11/13 03:08:41;;;;;;;21.03;16.63;;;;;;;4.93;62.98;100226.41;5051318;28;20112;-74
2021/11/13 03:11:11;;;;;;;23.37;15.10;;;;;;;4.97;62.88;100220.81;5051330;28;20033;-74
2021/11/13 03:13:38;;;;;;;18.17;13.80;;;;;;;4.96;62.75;100216.53;5051436;28;20009;-74
2021/11/13 03:16:06;;;;;;;19.63;16.13;;;;;;;4.73;62.72;100178.34;5051173;28;20036;-74
2021/11/13 03:18:32;;;;;;;19.43;15.90;;;;;;;5.06;62.60;100222.66;5051335;28;20513;-74
2021/11/13 03:20:58;;;;;;;19.43;15.97;;;;;;;5.09;62.58;100219.81;5050926;28;20020;-74
2021/11/13 03:23:24;;;;;;;19.53;15.53;;;;;;;5.05;62.98;100207.09;5051199;28;20092;-74
2021/11/13 03:26:00;;;;;;;18.63;14.73;;;;;;;5.14;62.59;100219.41;5051191;28;20032;-74
2021/11/13 03:28:29;;;;;;;22.93;16.00;;;;;;;5.17;62.75;100226.19;5051243;28;20456;-74
2021/11/13 03:30:55;;;;;;;20.77;16.70;;;;;;;5.21;62.69;100223.22;5051171;28;20021;-74
2021/11/13 03:33:20;;;;;;;23.47;16.03;;;;;;;4.91;62.60;100176.00;5051565;28;20021;-74
2021/11/13 03:35:46;;;;;;;24.03;18.67;;;;;;;4.88;62.81;100177.09;5051398;28;20052;-74
2021/11/13 03:38:15;;;;;;;25.33;17.00;;;;;;;4.93;62.57;100181.94;5051043;28;20049;-74
2021/11/13 03:40:44;;;;;;;20.67;16.47;;;;;;;5.23;62.86;100230.94;5050770;28;20024;-74
2021/11/13 03:43:10;;;;;;;22.30;16.30;;;;;;;5.24;62.89;100230.81;5051008;28;20021;-74
2021/11/13 03:45:37;;;;;;;20.67;15.70;;;;;;;5.22;62.89;100235.34;5051152;28;20082;-74
2021/11/13 03:48:03;;;;;;;21.50;16.80;;;;;;;4.85;62.89;100173.88;5051162;28;20032;-74
2021/11/13 03:50:29;;;;;;;22.07;16.40;;;;;;;5.23;63.14;100231.78;5050881;28;20023;-74
2021/11/13 03:52:55;;;;;;;25.30;16.20;;;;;;;5.29;62.95;100246.16;5050719;28;20025;-74
2021/11/13 03:55:22;;;;;;;28.17;17.70;;;;;;;5.15;62.95;100209.78;5033328;28;20029;-74
2021/11/13 03:57:48;;;;;;;25.57;17.57;;;;;;;5.33;63.29;100244.94;5033119;28;20434;-74
2021/11/13 04:00:14;;;;;;;35.20;20.93;;;;;;;5.07;63.46;100197.34;5050811;28;20024;-74
2021/11/13 04:02:44;;;;;;;32.50;18.57;;;;;;;5.35;63.56;100238.63;5050603;28;20086;-74
2021/11/13 04:05:10;;;;;;;25.63;16.97;;;;;;;5.39;63.46;100244.44;5050689;28;20021;-74
2021/11/13 04:07:36;;;;;;;29.63;18.27;;;;;;;5.14;64.03;100200.28;5032950;28;20466;-74
2021/11/13 04:10:04;;;;;;;28.00;19.43;;;;;;;4.97;63.54;100176.31;5050864;28;20096;-74
2021/11/13 04:12:30;;;;;;;30.07;21.80;;;;;;;5.50;63.70;100244.38;5050813;28;20104;-74
2021/11/13 04:14:56;;;;;;;28.27;20.23;;;;;;;5.31;63.45;100216.25;5050777;28;20527;-74
2021/11/13 04:17:21;;;;;;;30.73;20.53;;;;;;;5.52;63.96;100254.72;5050983;28;20063;-74
2021/11/13 04:19:47;;;;;;;28.43;17.30;;;;;;;5.51;63.79;100253.88;5050622;28;20429;-74
2021/11/13 04:22:12;;;;;;;27.17;18.40;;;;;;;5.53;64.01;100248.50;5050698;28;20017;-74
2021/11/13 04:24:38;;;;;;;34.43;19.27;;;;;;;5.55;64.16;100252.66;5050688;28;20505;-74
2021/11/13 04:27:03;;;;;;;35.50;21.20;;;;;;;5.55;64.01;100249.22;5050681;28;20021;-74
2021/11/13 04:29:29;;;;;;;38.90;23.20;;;;;;;5.05;64.41;100186.16;5050877;28;20498;-74
2021/11/13 04:31:54;;;;;;;43.77;23.53;;;;;;;5.55;64.47;100265.75;5050684;28;20527;-74
2021/11/13 04:34:22;;;;;;;35.87;20.87;;;;;;;5.33;64.64;100235.28;5052847;28;20551;-74
2021/11/13 04:36:53;;;;;;;41.93;22.40;;;;;;;5.58;64.72;100265.50;5054456;28;20028;-74
2021/11/13 04:39:21;;;;;;;44.27;22.57;;;;;;;5.59;65.17;100266.34;5054088;28;20433;-74
2021/11/13 04:41:46;;;;;;;45.23;22.73;;;;;;;5.62;65.55;100276.56;5054106;28;20259;-74
2021/11/13 04:44:12;;;;;;;48.63;27.87;;;;;;;5.67;65.31;100275.22;5054076;28;20083;-74
2021/11/13 04:46:37;;;;;;;56.40;26.17;;;;;;;5.66;65.62;100270.09;5054172;28;20021;-74
2021/11/13 04:49:03;;;;;;;46.70;24.47;;;;;;;5.65;65.35;100271.88;5036188;28;20098;-74
2021/11/13 04:51:29;;;;;;;57.00;25.83;;;;;;;5.58;65.69;100269.91;5053891;28;20096;-74
2021/11/13 04:53:54;;;;;;;57.23;27.40;;;;;;;5.67;66.29;100277.00;5053876;28;20093;-74
2021/11/13 04:56:20;;;;;;;81.90;35.00;;;;;;;5.49;66.56;100250.56;5053906;28;20049;-74
2021/11/13 04:58:45;;;;;;;88.23;41.40;;;;;;;5.31;66.48;100224.13;5053771;28;20075;-74
2021/11/13 05:01:11;;;;;;;76.27;39.30;;;;;;;5.70;66.45;100277.56;5035849;28;20116;-74
2021/11/13 05:03:36;;;;;;;72.60;33.70;;;;;;;5.57;66.48;100250.75;5053455;28;20122;-74
2021/11/13 05:06:02;;;;;;;92.43;44.23;;;;;;;5.51;65.97;100235.53;5053428;28;20043;-74
2021/11/13 05:08:28;;;;;;;80.43;40.67;;;;;;;5.55;66.73;100239.56;5053427;28;20025;-74
2021/11/13 05:10:53;;;;;;;78.07;34.63;;;;;;;5.78;67.00;100276.09;5053587;28;20028;-74
2021/11/13 05:13:19;;;;;;;84.63;38.13;;;;;;;5.73;66.84;100260.75;5053570;28;20013;-74
2021/11/13 05:15:46;;;;;;;89.70;40.53;;;;;;;5.93;66.94;100280.91;5053547;28;20474;-75
2021/11/13 05:18:11;;;;;;;88.93;38.40;;;;;;;5.65;67.38;100244.88;5053456;28;20040;-74
2021/11/13 05:20:37;;;;;;;88.33;38.87;;;;;;;5.73;67.20;100252.91;5053367;28;20033;-74
2021/11/13 05:23:03;;;;;;;92.75;40.30;;;;;;;6.05;67.50;100292.16;5053492;28;20028;-74
2021/11/13 05:25:28;;;;;;;109.85;47.58;;;;;;;5.99;67.04;100290.06;5053252;28;20029;-74
2021/11/13 05:27:54;;;;;;;110.30;47.57;;;;;;;6.08;67.53;100307.63;5035339;28;20036;-74
2021/11/13 05:30:21;;;;;;;101.40;45.87;;;;;;;6.10;67.78;100299.63;5053213;28;20100;-74
2021/11/13 05:32:47;;;;;;;98.57;44.97;;;;;;;5.90;67.51;100264.59;5052801;28;20028;-75
2021/11/13 05:35:13;;;;;;;131.30;51.63;;;;;;;5.69;68.06;100231.38;5052944;28;20041;-74
2021/11/13 05:37:39;;;;;;;110.50;45.13;;;;;;;6.16;68.06;100312.22;5053011;28;20025;-74
2021/11/13 05:40:07;;;;;;;115.78;47.88;;;;;;;5.80;68.38;100256.66;5034955;28;20413;-74
2021/11/13 05:42:34;;;;;;;103.88;40.97;;;;;;;5.86;68.43;100265.78;5052959;28;20013;-75
2021/11/13 05:45:00;;;;;;;119.20;48.37;;;;;;;5.99;68.09;100317.09;5034864;28;20025;-74
2021/11/13 05:47:25;;;;;;;132.52;55.53;;;;;;;6.29;68.31;100324.16;5053012;28;20039;-74
2021/11/13 05:49:51;;;;;;;137.52;55.15;;;;;;;6.35;68.51;100323.63;5052651;28;20025;-75
2021/11/13 05:52:17;;;;;;;118.15;54.65;;;;;;;6.22;68.37;100309.91;5052698;28;20028;-74
2021/11/13 05:54:43;;;;;;;142.63;63.00;;;;;;;6.45;68.07;100333.31;5052688;28;20017;-74
2021/11/13 05:57:09;;;;;;;137.37;62.17;;;;;;;6.45;68.22;100333.31;5052610;28;20566;-75
2021/11/13 05:59:34;;;;;;;153.00;66.53;;;;;;;6.51;68.15;100343.28;5052704;28;20099;-74
2021/11/13 06:01:59;;;;;;;158.43;74.53;;;;;;;6.52;68.45;100335.28;5052506;28;20418;-75
2021/11/13 06:04:25;;;;;;;140.20;64.67;;;;;;;6.52;68.97;100335.28;5052170;28;20025;-74
2021/11/13 06:06:50;;;;;;;167.77;77.13;;;;;;;6.53;68.40;100339.56;5052337;28;20028;-74
2021/11/13 06:09:16;;;;;;;132.32;64.32;;;;;;;6.47;68.75;100332.22;5052289;28;20025;-74
2021/11/13 06:11:41;;;;;;;150.23;70.85;;;;;;;6.55;68.52;100342.06;5052363;28;20021;-74
2021/11/13 06:14:06;;;;;;;163.35;79.93;;;;;;;6.59;68.93;100341.66;5052292;28;20021;-74
2021/11/13 06:16:32;;;;;;;131.05;61.60;;;;;;;6.65;68.88;100353.41;5051995;28;20036;-74
2021/11/13 06:18:57;;;;;;;124.57;57.75;;;;;;;6.57;68.87;100332.25;5052356;28;20029;-74
2021/11/13 06:21:23;;;;;;;149.77;70.93;;;;;;;6.68;68.87;100351.34;5051987;28;20027;-74
2021/11/13 06:23:48;;;;;;;136.20;63.50;;;;;;;6.70;68.97;100351.25;5052049;28;20398;-74
2021/11/13 06:26:15;;;;;;;156.35;69.63;;;;;;;6.74;69.74;100354.44;5052008;28;20025;-74
2021/11/13 06:28:41;;;;;;;174.75;84.25;;;;;;;6.76;69.46;100363.84;5051947;28;20421;-74
2021/11/13 06:31:07;;;;;;;170.63;80.22;;;;;;;6.76;69.00;100345.47;5052059;28;20028;-74
2021/11/13 06:33:33;;;;;;;179.93;79.95;;;;;;;6.84;69.56;100356.13;5051965;28;20056;-74
2021/11/13 06:35:59;;;;;;;139.55;63.75;;;;;;;6.86;69.59;100361.25;5051848;28;20555;-74
2021/11/13 06:38:24;;;;;;;139.43;66.78;;;;;;;6.76;69.75;100324.47;5051970;28;20028;-74
2021/11/13 06:40:50;;;;;;;162.07;75.72;;;;;;;6.57;69.66;100301.59;5051728;28;20475;-74
2021/11/13 06:43:15;;;;;;;129.73;64.18;;;;;;;6.87;70.04;100341.91;5051647;28;20048;-74
2021/11/13 06:45:41;;;;;;;152.27;65.80;;;;;;;6.89;70.21;100342.59;5051562;28;20086;-74
2021/11/13 06:48:06;;;;;;;134.57;65.43;;;;;;;6.73;70.35;100309.00;5051730;28;20021;-74
2021/11/13 06:50:34;;;;;;;139.63;65.13;;;;;;;6.92;69.89;100348.41;5051614;28;20528;-74
2021/11/13 06:53:01;;;;;;;156.73;70.03;;;;;;;7.02;70.65;100353.69;5033559;28;20029;-74
2021/11/13 06:55:26;;;;;;;132.10;63.15;;;;;;;6.78;70.62;100313.84;5051518;28;20017;-74
2021/11/13 06:57:52;;;;;;;147.00;70.60;;;;;;;6.87;70.49;100326.97;5051452;28;20017;-74
2021/11/13 07:00:19;;;;;;;129.15;59.85;;;;;;;6.87;70.45;100313.03;5051996;28;20099;-74
2021/11/13 07:02:45;;;;;;;135.85;63.72;;;;;;;7.12;70.63;100362.41;5051340;28;20021;-74
2021/11/13 07:05:11;;;;;;;143.45;69.45;;;;;;;7.17;70.16;100352.31;5051213;28;20029;-74
2021/11/13 07:07:38;;;;;;;158.38;70.57;;;;;;;6.99;70.38;100327.69;5051358;28;20020;-74
2021/11/13 07:10:08;;;;;;;146.45;68.10;;;;;;;7.12;70.59;100337.94;5051208;28;20032;-74
2021/11/13 07:12:33;;;;;;;144.10;64.00;;;;;;;7.32;70.96;100358.00;5051272;28;20017;-74
2021/11/13 07:14:58;;;;;;;165.88;69.68;;;;;;;7.11;70.91;100323.97;5051156;28;20017;-74
2021/11/13 07:17:24;;;;;;;135.32;62.00;;;;;;;7.01;70.66;100299.50;5051043;28;20055;-74
2021/11/13 07:19:50;;;;;;;125.65;65.07;;;;;;;7.38;71.27;100360.09;5051122;28;20040;-74
2021/11/13 07:22:16;;;;;;;137.60;72.82;;;;;;;7.43;70.78;100371.03;5051038;28;20059;-74
2021/11/13 07:24:42;;;;;;;158.10;79.70;;;;;;;7.06;70.79;100307.81;5050912;28;20021;-74
2021/11/13 07:27:08;;;;;;;128.60;67.57;;;;;;;7.50;71.29;100366.06;5050915;28;20029;-74
2021/11/13 07:29:42;;;;;;;141.50;69.85;;;;;;;7.49;71.13;100369.66;5051054;28;20063;-74
2021/11/13 07:32:08;;;;;;;137.63;65.40;;;;;;;7.54;70.75;100359.56;5051164;28;20104;-74
2021/11/13 07:34:33;;;;;;;117.00;56.03;;;;;;;7.50;71.78;100364.25;5050970;28;20488;-74
2021/11/13 07:36:59;;;;;;;101.30;50.33;;;;;;;7.50;71.38;100348.50;5051102;28;20029;-74
2021/11/13 07:39:24;;;;;;;104.88;46.95;;;;;;;7.48;71.44;100353.06;5050890;28;20017;-74
2021/11/13 07:41:50;;;;;;;83.00;41.95;;;;;;;7.37;71.57;100324.28;5050623;28;20025;-74
2021/11/13 07:44:15;;;;;;;98.50;44.47;;;;;;;7.67;71.34;100359.28;5050747;28;20036;-74
2021/11/13 07:46:41;;;;;;;105.70;46.42;;;;;;;7.75;71.73;100359.41;5051054;28;20029;-74
2021/11/13 07:49:06;;;;;;;96.07;45.28;;;;;;;7.68;71.19;100359.13;5051248;28;20521;-74
2021/11/13 07:51:32;;;;;;;111.22;51.95;;;;;;;7.73;71.68;100364.81;5050685;28;20074;-75
2021/11/13 07:53:57;;;;;;;84.32;43.05;;;;;;;7.75;71.56;100375.19;5050885;28;20009;-74
2021/11/13 07:56:23;;;;;;;99.20;48.17;;;;;;;7.79;71.56;100368.69;5050933;28;20035;-74
2021/11/13 07:58:48;;;;;;;90.07;47.22;;;;;;;7.80;71.53;100365.06;5050979;28;20494;-74
2021/11/13 08:01:14;;;;;;;76.70;42.67;;;;;;;7.87;72.26;100367.00;5050939;28;20396;-75
2021/11/13 08:03:39;;;;;;;86.78;45.20;;;;;;;7.50;71.63;100293.31;5050431;28;20025;-74
2021/11/13 08:06:05;;;;;;;70.50;38.80;;;;;;;8.07;71.89;100364.34;5050747;28;20105;-74
2021/11/13 08:08:30;;;;;;;69.53;37.38;;;;;;;8.09;71.00;100344.81;5034310;28;20520;-74
2021/11/13 08:10:58;;;;;;;70.53;40.00;;;;;;;8.31;70.65;100364.72;5036602;28;20053;-74
2021/11/13 08:13:24;;;;;;;75.78;40.50;;;;;;;8.40;71.15;100361.25;5054550;28;20017;-74
2021/11/13 08:15:49;;;;;;;90.18;47.88;;;;;;;8.44;70.54;100367.06;5054569;28;20078;-75
2021/11/13 08:18:16;;;;;;;63.50;34.80;;;;;;;8.40;71.06;100369.16;5036493;28;20100;-75
2021/11/13 08:20:41;;;;;;;61.97;34.70;;;;;;;8.51;70.74;100376.03;5054672;28;20024;-74
2021/11/13 08:23:09;;;;;;;74.40;39.47;;;;;;;8.59;70.35;100371.72;5054427;28;20428;-74
2021/11/13 08:25:36;;;;;;;86.68;48.38;;;;;;;8.63;70.77;100376.69;5054318;28;20095;-74
2021/11/13 08:28:03;;;;;;;85.15;46.55;;;;;;;8.47;70.67;100350.97;5054310;28;20521;-75
2021/11/13 08:30:30;;;;;;;67.35;37.72;;;;;;;8.59;70.09;100366.44;5036257;28;20382;-75
2021/11/13 08:32:57;;;;;;;59.80;35.03;;;;;;;8.62;70.77;100375.03;5036416;28;20021;-75
2021/11/13 08:35:23;;;;;;;69.40;38.72;;;;;;;8.55;70.61;100344.03;5054000;28;20032;-75
2021/11/13 08:37:48;;;;;;;79.07;44.10;;;;;;;8.73;70.37;100375.66;5053941;28;20375;-75
2021/11/13 08:40:15;;;;;;;59.97;34.60;;;;;;;8.70;70.65;100369.88;5053845;28;20542;-75
2021/11/13 08:42:40;;;;;;;56.42;33.08;;;;;;;8.71;70.64;100368.88;5054145;28;20021;-74
2021/11/13 08:45:08;;;;;;;56.50;33.50;;;;;;;8.41;70.48;100317.34;5054020;28;20029;-75
2021/11/13 08:47:35;;;;;;;58.38;33.65;;;;;;;8.76;70.26;100372.75;5054122;28;20494;-75
2021/11/13 08:50:01;;;;;;;64.32;35.38;;;;;;;8.70;69.94;100356.69;5053921;28;20032;-75
2021/11/13 08:52:26;;;;;;;57.50;35.30;;;;;;;8.79;70.30;100382.97;5053924;28;20409;-75
2021/11/13 08:54:52;;;;;;;56.00;35.05;;;;;;;8.40;70.21;100303.38;5035941;28;20025;-75
2021/11/13 08:57:18;;;;;;;56.30;35.58;;;;;;;8.79;69.98;100374.25;5053814;28;20021;-75
2021/11/13 08:59:43;;;;;;;50.05;32.50;;;;;;;8.80;70.12;100366.22;5053757;28;20025;-75
2021/11/13 09:02:16;;;;;;;50.45;31.90;;;;;;;8.56;69.70;100315.91;5053465;28;20021;-75
2021/11/13 09:04:44;;;;;;;50.95;32.42;;;;;;;8.84;70.25;100357.03;5035381;28;20029;-75
2021/11/13 09:07:10;;;;;;;54.38;34.08;;;;;;;8.70;69.86;100336.47;5053579;28;20025;-75
2021/11/13 09:09:37;;;;;;;52.28;33.47;;;;;;;8.58;69.76;100306.06;5053625;28;20182;-74
2021/11/13 09:12:05;;;;;;;61.67;35.90;;;;;;;8.69;69.13;100310.28;5053841;28;20024;-75
2021/11/13 09:14:32;;;;;;;68.35;39.13;;;;;;;9.00;69.33;100350.31;5053457;28;20021;-75
2021/11/13 09:16:59;;;;;;;67.30;41.70;;;;;;;8.89;69.22;100339.00;5053342;28;20045;-74
2021/11/13 09:19:24;;;;;;;67.45;41.10;;;;;;;9.02;68.57;100343.94;5052806;28;20467;-74
2021/11/13 09:21:52;;;;;;;63.50;40.92;;;;;;;9.04;68.35;100349.88;5053231;28;20017;-74
2021/11/13 09:24:18;;;;;;;64.13;41.70;;;;;;;9.03;68.43;100339.50;5053108;28;20024;-75
2021/11/13 09:26:43;;;;;;;71.45;44.20;;;;;;;9.08;68.47;100347.78;5053320;28;20413;-75
2021/11/13 09:29:09;;;;;;;83.13;50.35;;;;;;;9.07;68.17;100348.75;5053164;28;20021;-75
2021/11/13 09:31:36;;;;;;;81.60;52.80;;;;;;;8.88;68.22;100332.06;5053199;28;20025;-74
2021/11/13 09:34:02;;;;;;;109.55;62.58;;;;;;;9.02;68.24;100340.47;5052905;28;20083;-75
2021/11/13 09:36:28;;;;;;;110.97;66.15;;;;;;;9.03;68.34;100339.50;5052900;28;20021;-75
2021/11/13 09:38:55;;;;;;;95.90;58.95;;;;;;;8.83;67.95;100312.41;5052838;28;20056;-75
2021/11/13 09:41:21;;;;;;;82.75;52.60;;;;;;;9.01;67.90;100334.38;5052974;28;20028;-74
2021/11/13 09:43:47;;;;;;;86.15;53.75;;;;;;;8.72;68.28;100289.75;5052927;28;20029;-74
2021/11/13 09:46:14;;;;;;;76.55;49.42;;;;;;;8.64;68.36;100263.34;5052786;28;20047;-74
2021/11/13 09:48:40;;;;;;;79.22;51.28;;;;;;;8.71;68.15;100272.31;5052898;28;20025;-75
2021/11/13 09:51:08;;;;;;;74.50;49.50;;;;;;;9.06;68.08;100321.59;5034853;28;20585;-75
2021/11/13 09:53:34;;;;;;;73.82;48.33;;;;;;;9.04;68.09;100310.38;5033442;28;20466;-75
2021/11/13 09:56:00;;;;;;;78.25;55.33;;;;;;;8.80;67.93;100260.88;5052657;28;20096;-74
2021/11/13 09:58:27;;;;;;;74.70;50.63;;;;;;;9.14;67.75;100308.50;5034635;28;20017;-74
2021/11/13 10:00:53;;;;;;;77.35;49.63;;;;;;;9.25;67.54;100315.34;5052670;28;20032;-75
2021/11/13 10:03:19;;;;;;;75.68;50.38;;;;;;;9.26;67.52;100314.38;5052213;28;20013;-75
2021/11/13 10:05:59;;;;;;;67.38;48.00;;;;;;;9.26;66.83;100310.91;5052372;28;20024;-74
2021/11/13 10:08:26;;;;;;;64.18;42.25;;;;;;;9.23;67.37;100304.13;5052222;28;20455;-75
2021/11/13 10:11:14;;;;;;;60.17;42.55;;;;;;;9.15;67.50;100296.97;5052181;28;20095;-75
2021/11/13 10:13:43;;;;;;;61.53;44.42;;;;;;;9.19;67.66;100298.34;5052303;28;20512;-75
2021/11/13 10:16:14;;;;;;;65.97;43.63;;;;;;;9.20;67.29;100301.78;5052177;28;20440;-75
2021/11/13 10:18:43;;;;;;;59.22;43.00;;;;;;;9.19;67.35;100297.50;5052267;28;20032;-75
2021/11/13 10:21:15;;;;;;;69.38;50.35;;;;;;;9.20;67.37;100293.88;5052134;28;20096;-75
2021/11/13 10:23:48;;;;;;;63.72;45.42;;;;;;;9.17;67.26;100292.38;5052150;28;20029;-74
2021/11/13 10:26:20;;;;;;;71.15;49.95;;;;;;;9.20;67.24;100294.72;5052105;28;20056;-74
2021/11/13 10:29:18;;;;;;;70.03;47.38;;;;;;;8.76;67.08;100233.19;5052084;28;20049;-75
2021/11/13 10:31:52;;;;;;;64.80;44.50;;;;;;;9.13;66.83;100285.75;5047886;28;20044;-75
2021/11/13 10:34:32;;;;;;;69.25;46.53;;;;;;;9.16;67.11;100282.00;5051823;28;20449;-75
2021/11/13 10:37:02;;;;;;;64.10;44.42;;;;;;;9.21;66.88;100271.84;5052321;28;20060;-74
2021/11/13 10:39:36;;;;;;;65.60;44.85;;;;;;;9.27;66.66;100268.59;5051877;28;20033;-74
2021/11/13 10:42:14;;;;;;;57.15;39.90;;;;;;;9.29;66.59;100265.81;5051869;28;20028;-75
2021/11/13 10:44:49;;;;;;;57.33;40.50;;;;;;;9.30;66.55;100265.66;5051646;28;20029;-74
2021/11/13 10:47:28;;;;;;;57.03;40.97;;;;;;;9.20;66.37;100246.47;5051842;28;20074;-74
2021/11/13 10:50:15;;;;;;;51.97;39.83;;;;;;;9.04;66.39;100214.72;5051789;28;20025;-74
2021/11/13 10:52:41;;;;;;;58.03;44.08;;;;;;;9.10;66.38;100222.84;5051422;28;20128;-74
2021/11/13 10:55:17;;;;;;;59.53;44.22;;;;;;;9.35;66.41;100267.84;5051491;28;20105;-75
2021/11/13 10:57:42;;;;;;;61.72;44.83;;;;;;;9.28;66.47;100246.53;5033407;28;20043;-75
2021/11/13 11:00:16;;;;;;;59.00;41.95;;;;;;;9.26;66.06;100253.75;5051488;28;20100;-74
2021/11/13 11:02:43;;;;;;;44.78;35.85;;;;;;;9.37;66.10;100250.06;5051596;28;20029;-74
2021/11/13 11:05:17;;;;;;;46.30;37.50;;;;;;;9.45;65.68;100256.22;5051440;28;20082;-75
2021/11/13 11:07:43;;;;;;;51.60;39.28;;;;;;;9.44;65.85;100257.19;5051260;28;20444;-75
2021/11/13 11:10:13;;;;;;;46.08;37.50;;;;;;;9.44;65.69;100257.19;5051315;28;20054;-75
2021/11/13 11:12:39;;;;;;;48.72;39.20;;;;;;;9.39;65.59;100246.28;5051392;28;20025;-75